createdAt,value
2022-09-07T00:01:46.348Z,97973.41
2022-09-07T00:04:12.817Z,97971.09
2022-09-07T00:06:39.251Z,97981.16
2022-09-07T00:09:05.622Z,97981.63
2022-09-07T00:11:32.001Z,97975.97
2022-09-07T00:13:58.437Z,97980.84
2022-09-07T00:16:26.323Z,97974.94
2022-09-07T00:18:57.055Z,97978.16
2022-09-07T00:21:24.143Z,97977.72
2022-09-07T00:23:50.700Z,97974.81
2022-09-07T00:26:18.079Z,97983.16
2022-09-07T00:28:44.465Z,97977.63
2022-09-07T00:31:11.722Z,97987.31
2022-09-07T00:33:38.117Z,97982.56
2022-09-07T00:36:04.559Z,97980.94
2022-09-07T00:38:31.006Z,97981.03
2022-09-07T00:40:57.497Z,97985.88
2022-09-07T00:43:29.928Z,97982.66
2022-09-07T00:45:56.312Z,97975.38
2022-09-07T00:48:22.697Z,97975.84
2022-09-07T00:50:56.688Z,97971.03
2022-09-07T00:53:30.930Z,97970.34
2022-09-07T00:55:57.377Z,97970.38
2022-09-07T00:58:23.817Z,97963.97
2022-09-07T01:00:50.594Z,97961.22
2022-09-07T01:03:19.040Z,97958.84
2022-09-07T01:05:46.372Z,97959.66
2022-09-07T01:08:12.788Z,97963.09
2022-09-07T01:10:39.193Z,97957.13
2022-09-07T01:13:05.555Z,97946.66
2022-09-07T01:15:55.210Z,97949.09
2022-09-07T01:18:27.484Z,97956.41
2022-09-07T01:20:55.815Z,97951.13
2022-09-07T01:23:44.237Z,97949.94
2022-09-07T01:26:10.608Z,97951.91
2022-09-07T01:28:36.967Z,97955.94
2022-09-07T01:31:27.997Z,97943.09
2022-09-07T01:34:01.601Z,97948.22
2022-09-07T01:36:33.733Z,97938.25
2022-09-07T01:39:00.531Z,97926.53
2022-09-07T01:41:27.134Z,97931.72
2022-09-07T01:43:59.027Z,97931.38
2022-09-07T01:46:28.072Z,97931.44
2022-09-07T01:48:55.328Z,97930.56
2022-09-07T01:51:21.791Z,97934.38
2022-09-07T01:53:58.114Z,97938.31
2022-09-07T01:56:25.612Z,97935.97
2022-09-07T01:58:52.644Z,97929.56
2022-09-07T02:01:24.034Z,97932.38
2022-09-07T02:03:51.836Z,97938.41
2022-09-07T02:06:36.035Z,97937.63
2022-09-07T02:09:03.489Z,97951.13
2022-09-07T02:11:34.811Z,97949.75
2022-09-07T02:14:01.616Z,98009.84
2022-09-07T02:16:28.509Z,98026.03
2022-09-07T02:19:04.701Z,98026.44
2022-09-07T02:21:31.807Z,98019.25
2022-09-07T02:24:00.148Z,98012.56
2022-09-07T02:26:26.514Z,98020.75
2022-09-07T02:28:52.859Z,98009.53
2022-09-07T02:31:19.788Z,98006.47
2022-09-07T02:33:46.214Z,98003.69
2022-09-07T02:36:12.600Z,98014.22
2022-09-07T02:38:38.973Z,98009.13
2022-09-07T02:41:05.428Z,98004.16
2022-09-07T02:43:31.824Z,98014.69
2022-09-07T02:46:25.018Z,98019.56
2022-09-07T02:49:01.939Z,98020.69
2022-09-07T02:51:47.234Z,98018.75
2022-09-07T02:54:19.430Z,98025.09
2022-09-07T02:56:58.115Z,98024.34
2022-09-07T02:59:44.697Z,98035.94
2022-09-07T03:02:18.422Z,98028.78
2022-09-07T03:04:47.289Z,98030.09
2022-09-07T03:07:15.382Z,98028.66
2022-09-07T03:09:42.976Z,98015.81
2022-09-07T03:12:09.780Z,98009.41
2022-09-07T03:14:36.568Z,98009.47
2022-09-07T03:17:03.083Z,98021.88
2022-09-07T03:19:29.438Z,98013.88
2022-09-07T03:21:55.795Z,98014.78
2022-09-07T03:24:22.161Z,98014.38
2022-09-07T03:26:48.679Z,98009.22
2022-09-07T03:29:15.115Z,98024.38
2022-09-07T03:31:41.620Z,98020.81
2022-09-07T03:34:08.001Z,98030.50
2022-09-07T03:36:34.517Z,98038.91
2022-09-07T03:39:01.123Z,98048.53
2022-09-07T03:41:27.670Z,98048.97
2022-09-07T03:43:54.104Z,98046.19
2022-09-07T03:46:20.609Z,98036.06
2022-09-07T03:48:47.411Z,98038.97
2022-09-07T03:51:14.241Z,98020.19
2022-09-07T03:53:42.428Z,98003.94
2022-09-07T03:56:09.981Z,97993.94
2022-09-07T03:58:36.452Z,97995.22
2022-09-07T04:01:06.929Z,97986.03
2022-09-07T04:03:33.394Z,97971.22
2022-09-07T04:06:00.082Z,97974.94
2022-09-07T04:08:27.127Z,97983.41
2022-09-07T04:10:53.524Z,98005.09
2022-09-07T04:13:19.897Z,98020.31
2022-09-07T04:15:47.594Z,98006.28
2022-09-07T04:18:15.417Z,98004.69
2022-09-07T04:20:41.787Z,98012.69
2022-09-07T04:23:08.145Z,98002.69
2022-09-07T04:25:34.932Z,98017.50
2022-09-07T04:28:01.373Z,98001.47
2022-09-07T04:30:27.859Z,97995.88
2022-09-07T04:32:54.307Z,97986.66
2022-09-07T04:35:20.673Z,97985.91
2022-09-07T04:37:47.041Z,97988.69
2022-09-07T04:40:13.558Z,97984.69
2022-09-07T04:42:39.982Z,97969.47
2022-09-07T04:45:06.628Z,97966.28
2022-09-07T04:47:32.997Z,97941.09
2022-09-07T04:49:59.403Z,97946.28
2022-09-07T04:52:25.807Z,97946.28
2022-09-07T04:54:52.262Z,97926.25
2022-09-07T04:57:21.635Z,97909.03
2022-09-07T04:59:48.418Z,97899.06
2022-09-07T05:02:14.908Z,97891.03
2022-09-07T05:04:41.434Z,97879.81
2022-09-07T05:07:07.839Z,97871.81
2022-09-07T05:09:34.281Z,97861.81
2022-09-07T05:12:00.699Z,97863.03
2022-09-07T05:14:27.081Z,97867.03
2022-09-07T05:16:53.514Z,97863.44
2022-09-07T05:19:20.129Z,97868.28
2022-09-07T05:21:46.534Z,97871.88
2022-09-07T05:24:13.015Z,97871.88
2022-09-07T05:26:39.675Z,97878.28
2022-09-07T05:31:52.577Z,97875.03
2022-09-07T05:34:34.534Z,97869.44
2022-09-07T05:37:01.000Z,97873.84
2022-09-07T05:39:27.531Z,97873.81
2022-09-07T05:41:54.009Z,97875.03
2022-09-07T05:47:06.804Z,97896.66
2022-09-07T05:49:33.270Z,97892.66
2022-09-07T05:51:59.625Z,97902.19
2022-09-07T05:54:25.997Z,97904.63
2022-09-07T05:56:52.356Z,97907.81
2022-09-07T05:59:18.748Z,97914.19
2022-09-07T06:01:45.149Z,97918.63
2022-09-07T06:04:11.604Z,97914.22
2022-09-07T06:06:38.889Z,97916.63
2022-09-07T06:09:05.297Z,97914.63
2022-09-07T06:11:31.667Z,97919.38
2022-09-07T06:13:58.038Z,97914.97
2022-09-07T06:16:24.508Z,97918.56
2022-09-07T06:18:51.021Z,97913.69
2022-09-07T06:21:21.458Z,97915.31
2022-09-07T06:23:47.827Z,97924.09
2022-09-07T06:26:14.460Z,97908.50
2022-09-07T06:28:41.527Z,97917.28
2022-09-07T06:31:08.738Z,97922.13
2022-09-07T06:33:35.489Z,97926.09
2022-09-07T06:36:05.804Z,97924.06
2022-09-07T06:38:32.848Z,97939.25
2022-09-07T06:43:56.042Z,97947.94
2022-09-07T06:49:08.906Z,97958.28
2022-09-07T06:51:35.261Z,97954.19
2022-09-07T06:56:48.268Z,97960.13
2022-09-07T06:59:14.645Z,97966.47
2022-09-07T07:01:41.055Z,97960.88
2022-09-07T07:04:07.466Z,97968.13
2022-09-07T07:06:34.764Z,97968.31
2022-09-07T07:09:01.234Z,97973.44
2022-09-07T07:11:27.596Z,97978.59
2022-09-07T07:13:53.938Z,97969.84
2022-09-07T07:16:20.402Z,97986.47
2022-09-07T07:18:48.744Z,97980.75
2022-09-07T07:21:15.151Z,97982.38
2022-09-07T07:23:41.613Z,97983.00
2022-09-07T07:26:09.807Z,97990.84
2022-09-07T07:31:23.963Z,97985.81
2022-09-07T07:33:50.413Z,97988.47
2022-09-07T07:36:17.628Z,97994.72
2022-09-07T07:39:03.358Z,97998.59
2022-09-07T07:44:20.559Z,97993.91
2022-09-07T07:46:47.689Z,97992.84
2022-09-07T07:49:14.055Z,98002.03
2022-09-07T07:54:26.687Z,98003.81
2022-09-07T07:56:53.038Z,97997.50
2022-09-07T07:59:19.360Z,97997.53
2022-09-07T08:01:45.785Z,98000.06
2022-09-07T08:04:12.201Z,98001.94
2022-09-07T08:06:41.463Z,97996.38
2022-09-07T08:09:07.786Z,98000.44
2022-09-07T08:11:35.374Z,98006.94
2022-09-07T08:14:02.757Z,98006.88
2022-09-07T08:16:29.148Z,98008.50
2022-09-07T08:18:55.522Z,98008.47
2022-09-07T08:21:22.166Z,98000.38
2022-09-07T08:23:48.507Z,98002.38
2022-09-07T08:26:14.846Z,98009.19
2022-09-07T08:28:41.779Z,98000.91
2022-09-07T08:31:08.762Z,98000.97
2022-09-07T08:33:36.142Z,98007.06
2022-09-07T08:36:02.820Z,97996.91
2022-09-07T08:38:29.895Z,98003.16
2022-09-07T08:40:56.268Z,98000.88
2022-09-07T08:43:25.388Z,98011.03
2022-09-07T08:45:52.620Z,98012.78
2022-09-07T08:48:21.032Z,98012.53
2022-09-07T08:50:53.123Z,98009.34
2022-09-07T08:53:19.649Z,98007.03
2022-09-07T08:55:45.901Z,98008.69
2022-09-07T08:58:32.292Z,98006.56
2022-09-07T09:06:41.893Z,97996.16
2022-09-07T09:09:12.052Z,98003.13
2022-09-07T09:11:57.184Z,98010.72
2022-09-07T09:14:23.567Z,98009.72
2022-09-07T09:16:51.335Z,98019.69
2022-09-07T09:19:20.659Z,98011.41
2022-09-07T09:21:46.983Z,98011.31
2022-09-07T09:24:16.836Z,98019.16
2022-09-07T09:26:44.287Z,98011.50
2022-09-07T09:29:14.253Z,98024.81
2022-09-07T09:31:40.647Z,98015.00
2022-09-07T09:34:08.106Z,98023.38
2022-09-07T09:36:45.670Z,98021.16
2022-09-07T09:39:22.015Z,98019.03
2022-09-07T09:41:48.459Z,98015.94
2022-09-07T09:44:15.127Z,98017.66
2022-09-07T09:46:41.535Z,98027.25
2022-09-07T09:49:22.456Z,98008.25
2022-09-07T09:54:43.395Z,98018.34
2022-09-07T09:57:14.872Z,98016.09
2022-09-07T09:59:59.247Z,98024.84
2022-09-07T10:05:20.196Z,98023.78
2022-09-07T10:07:50.783Z,98014.16
2022-09-07T10:10:17.176Z,98013.63
2022-09-07T10:12:43.508Z,98002.78
2022-09-07T10:15:20.816Z,98011.88
2022-09-07T10:17:47.496Z,98011.13
2022-09-07T10:20:16.040Z,98001.66
2022-09-07T10:23:00.784Z,98018.63
2022-09-07T10:25:37.136Z,98011.25
2022-09-07T10:28:15.755Z,98014.06
2022-09-07T10:30:42.122Z,98006.63
2022-09-07T10:33:41.075Z,98003.16
2022-09-07T10:36:13.567Z,98001.91
2022-09-07T10:38:42.012Z,97993.63
2022-09-07T10:41:08.519Z,98001.09
2022-09-07T10:43:40.929Z,98003.31
2022-09-07T10:49:11.910Z,98009.69
2022-09-07T10:51:53.492Z,98011.28
2022-09-07T10:54:35.526Z,97997.66
2022-09-07T10:57:08.243Z,97989.84
2022-09-07T11:02:27.073Z,97990.94
2022-09-07T11:04:59.615Z,97994.34
2022-09-07T11:07:25.902Z,97996.13
2022-09-07T11:09:55.317Z,97995.69
2022-09-07T11:12:27.379Z,97986.50
2022-09-07T11:15:08.072Z,97998.94
2022-09-07T11:17:45.313Z,97983.88
2022-09-07T11:20:13.743Z,97979.88
2022-09-07T11:23:03.481Z,97983.66
2022-09-07T11:25:46.701Z,97984.75
2022-09-07T11:28:14.639Z,97982.13
2022-09-07T11:30:42.827Z,97974.53
2022-09-07T11:33:12.180Z,97984.00
2022-09-07T11:35:49.796Z,97993.03
2022-09-07T11:38:28.247Z,97985.47
2022-09-07T11:40:59.722Z,97988.94
2022-09-07T11:43:36.576Z,97985.03
2022-09-07T11:46:06.165Z,97975.59
2022-09-07T11:48:52.869Z,97974.44
2022-09-07T11:51:19.229Z,97957.34
2022-09-07T11:53:46.511Z,97968.75
2022-09-07T11:56:21.371Z,97972.56
2022-09-07T11:58:47.828Z,97976.16
2022-09-07T12:01:19.908Z,97970.00
2022-09-07T12:03:56.504Z,97968.94
2022-09-07T12:06:35.041Z,97967.00
2022-09-07T12:09:08.852Z,97960.69
2022-09-07T12:11:53.987Z,97961.97
2022-09-07T12:14:38.932Z,97962.59
2022-09-07T12:17:25.500Z,97970.34
2022-09-07T12:20:12.159Z,97971.59
2022-09-07T12:22:38.510Z,97970.63
2022-09-07T12:25:08.525Z,97964.63
2022-09-07T12:27:34.804Z,97970.81
2022-09-07T12:30:04.316Z,97971.94
2022-09-07T12:32:58.864Z,97973.19
2022-09-07T12:35:28.545Z,97964.16
2022-09-07T12:37:55.241Z,97956.88
2022-09-07T12:40:30.673Z,97962.44
2022-09-07T12:43:12.393Z,97955.53
2022-09-07T12:45:38.675Z,97957.88
2022-09-07T12:48:07.455Z,97955.53
2022-09-07T12:50:42.266Z,97964.97
2022-09-07T12:53:10.788Z,97964.00
2022-09-07T12:59:02.875Z,97962.81
2022-09-07T13:01:29.755Z,97956.34
2022-09-07T13:04:15.611Z,97955.06
2022-09-07T13:07:02.799Z,97954.84
2022-09-07T13:09:36.074Z,97945.34
2022-09-07T13:12:04.849Z,97941.53
2022-09-07T13:14:34.500Z,97931.09
2022-09-07T13:17:19.873Z,97944.47
2022-09-07T13:19:46.232Z,97938.69
2022-09-07T13:22:31.303Z,97946.00
2022-09-07T13:25:13.388Z,97937.41
2022-09-07T13:27:43.857Z,97936.94
2022-09-07T13:30:16.713Z,97939.00
2022-09-07T13:35:30.209Z,97939.88
2022-09-07T13:38:00.308Z,97935.34
2022-09-07T13:40:39.256Z,97934.97
2022-09-07T13:43:05.642Z,97925.19
2022-09-07T13:45:45.635Z,97922.56
2022-09-07T13:48:30.851Z,97927.41
2022-09-07T13:51:03.538Z,97911.22
2022-09-07T13:53:34.286Z,97913.50
2022-09-07T13:56:06.693Z,97915.03
2022-09-07T13:58:34.271Z,97920.63
2022-09-07T14:01:01.411Z,97921.47
2022-09-07T14:03:28.349Z,97921.59
2022-09-07T14:06:13.821Z,97931.25
2022-09-07T14:08:40.727Z,97925.13
2022-09-07T14:11:23.627Z,97928.59
2022-09-07T14:14:09.030Z,97917.72
2022-09-07T14:16:35.637Z,97928.09
2022-09-07T14:19:02.080Z,97924.06
2022-09-07T14:21:28.416Z,97932.75
2022-09-07T14:23:57.069Z,97932.81
2022-09-07T14:26:23.512Z,97933.28
2022-09-07T14:28:53.978Z,97921.06
2022-09-07T14:31:20.882Z,97927.56
2022-09-07T14:33:47.228Z,97925.03
2022-09-07T14:36:39.504Z,97922.00
2022-09-07T14:39:07.233Z,97911.81
2022-09-07T14:41:34.760Z,97912.41
2022-09-07T14:44:01.217Z,97907.13
2022-09-07T14:46:33.044Z,97904.88
2022-09-07T14:49:00.582Z,97904.06
2022-09-07T14:51:35.287Z,97912.53
2022-09-07T14:54:03.598Z,97905.78
2022-09-07T14:56:31.464Z,97911.22
2022-09-07T14:58:57.794Z,97908.59
2022-09-07T15:01:39.770Z,97910.63
2022-09-07T15:04:14.793Z,97906.31
2022-09-07T15:09:30.741Z,97905.28
2022-09-07T15:12:04.018Z,97892.69
2022-09-07T15:14:30.342Z,97896.75
2022-09-07T15:19:44.335Z,97899.38
2022-09-07T15:22:10.964Z,97902.28
2022-09-07T15:24:37.288Z,97897.53
2022-09-07T15:27:11.076Z,97898.09
2022-09-07T15:29:37.408Z,97901.50
2022-09-07T15:32:08.000Z,97901.59
2022-09-07T15:34:35.201Z,97896.72
2022-09-07T15:37:02.657Z,97902.13
2022-09-07T15:39:30.514Z,97895.63
2022-09-07T15:41:57.669Z,97891.31
2022-09-07T15:44:26.385Z,97889.28
2022-09-07T15:49:47.417Z,97886.50
2022-09-07T15:52:16.596Z,97881.84
2022-09-07T15:54:43.490Z,97883.09
2022-09-07T15:59:56.288Z,97869.75
2022-09-07T16:05:09.677Z,97882.50
2022-09-07T16:10:22.471Z,97884.59
2022-09-07T16:13:11.104Z,97877.94
2022-09-07T16:15:35.475Z,97866.16
2022-09-07T16:18:01.900Z,97871.34
2022-09-07T16:20:32.006Z,97871.25
2022-09-07T16:23:14.893Z,97875.09
2022-09-07T16:25:43.389Z,97878.03
2022-09-07T16:28:10.126Z,97879.03
2022-09-07T16:30:38.989Z,97870.53
2022-09-07T16:33:05.456Z,97865.84
2022-09-07T16:35:32.950Z,97872.44
2022-09-07T16:40:48.181Z,97877.69
2022-09-07T16:43:16.748Z,97878.19
2022-09-07T16:48:31.948Z,97883.31
2022-09-07T16:51:02.031Z,97879.19
2022-09-07T16:53:29.295Z,97877.28
2022-09-07T16:56:11.927Z,97880.41
2022-09-07T16:58:38.910Z,97875.09
2022-09-07T17:01:05.867Z,97873.25
2022-09-07T17:03:32.456Z,97863.91
2022-09-07T17:06:02.584Z,97862.28
2022-09-07T17:08:29.612Z,97862.09
2022-09-07T17:11:01.262Z,97866.94
2022-09-07T17:13:28.297Z,97857.91
2022-09-07T17:15:54.948Z,97861.47
2022-09-07T17:19:28.861Z,97861.91
2022-09-07T17:21:08.225Z,97865.25
2022-09-07T17:23:41.943Z,97858.13
2022-09-07T17:26:12.025Z,97868.84
2022-09-07T17:28:38.554Z,97869.66
2022-09-07T17:31:07.904Z,97869.44
2022-09-07T17:33:34.619Z,97871.81
2022-09-07T17:36:01.494Z,97865.16
2022-09-07T17:41:19.935Z,97879.34
2022-09-07T17:43:46.614Z,97881.44
2022-09-07T17:46:14.470Z,97878.16
2022-09-07T17:48:40.836Z,97883.28
2022-09-07T17:51:07.835Z,97884.25
2022-09-07T17:53:34.831Z,97877.34
2022-09-07T17:56:01.292Z,97894.00
2022-09-07T17:58:27.639Z,97888.19
2022-09-07T18:00:54.507Z,97877.53
2022-09-07T18:03:21.406Z,97880.97
2022-09-07T18:05:52.624Z,97895.78
2022-09-07T18:08:18.954Z,97885.63
2022-09-07T18:13:36.325Z,97886.47
2022-09-07T18:16:13.354Z,97894.06
2022-09-07T18:18:39.714Z,97884.13
2022-09-07T18:21:16.349Z,97891.16
2022-09-07T18:23:42.711Z,97884.03
2022-09-07T18:26:09.278Z,97893.41
2022-09-07T18:31:22.071Z,97889.59
2022-09-07T18:33:48.527Z,97881.47
2022-09-07T18:36:14.924Z,97879.88
2022-09-07T18:38:41.268Z,97880.31
2022-09-07T18:41:09.287Z,97887.13
2022-09-07T18:43:36.559Z,97886.38
2022-09-07T18:46:05.715Z,97886.22
2022-09-07T18:48:32.156Z,97875.03
2022-09-07T18:51:00.222Z,97882.00
2022-09-07T18:53:26.720Z,97884.91
2022-09-07T18:55:53.090Z,97892.97
2022-09-07T18:58:19.469Z,97884.53
2022-09-07T19:00:47.552Z,97887.09
2022-09-07T19:03:14.204Z,97883.91
2022-09-07T19:05:55.926Z,97890.06
2022-09-07T19:08:22.287Z,97900.63
2022-09-07T19:10:48.907Z,97889.09
2022-09-07T19:13:15.439Z,97892.28
2022-09-07T19:15:41.779Z,97891.50
2022-09-07T19:18:08.164Z,97894.66
2022-09-07T19:20:34.504Z,97885.84
2022-09-07T19:23:00.853Z,97889.94
2022-09-07T19:25:27.232Z,97894.81
2022-09-07T19:27:53.572Z,97884.69
2022-09-07T19:30:19.935Z,97881.88
2022-09-07T19:32:46.272Z,97881.47
2022-09-07T19:35:12.665Z,97883.22
2022-09-07T19:37:39.086Z,97884.69
2022-09-07T19:40:05.797Z,97887.03
2022-09-07T19:42:32.159Z,97895.97
2022-09-07T19:44:58.689Z,97883.94
2022-09-07T19:47:25.022Z,97893.44
2022-09-07T19:49:52.258Z,97884.53
2022-09-07T19:52:18.787Z,97886.97
2022-09-07T19:54:45.793Z,97885.03
2022-09-07T19:57:12.152Z,97896.31
2022-09-07T19:59:38.469Z,97896.78
2022-09-07T20:02:04.841Z,97898.38
2022-09-07T20:04:31.236Z,97889.09
2022-09-07T20:06:57.621Z,97887.69
2022-09-07T20:09:24.791Z,97886.97
2022-09-07T20:11:51.165Z,97885.44
2022-09-07T20:14:17.614Z,97883.44
2022-09-07T20:16:44.108Z,97880.53
2022-09-07T20:19:11.094Z,97876.16
2022-09-07T20:21:37.472Z,97869.69
2022-09-07T20:24:04.081Z,97879.28
2022-09-07T20:26:32.202Z,97870.38
2022-09-07T20:29:16.705Z,97869.44
2022-09-07T20:31:46.872Z,97873.13
2022-09-07T20:34:13.397Z,97859.91
2022-09-07T20:36:40.035Z,97861.59
2022-09-07T20:39:06.372Z,97866.75
2022-09-07T20:41:33.901Z,97863.91
2022-09-07T20:44:00.649Z,97857.50
2022-09-07T20:46:27.378Z,97855.03
2022-09-07T20:48:53.849Z,97852.31
2022-09-07T20:51:21.708Z,97851.94
2022-09-07T20:53:48.262Z,97849.81
2022-09-07T20:56:18.181Z,97847.88
2022-09-07T20:58:44.717Z,97849.41
2022-09-07T21:01:11.398Z,97847.38
2022-09-07T21:03:38.042Z,97850.59
2022-09-07T21:06:04.900Z,97849.91
2022-09-07T21:08:34.158Z,97848.59
2022-09-07T21:11:04.143Z,97851.72
2022-09-07T21:13:30.495Z,97848.59
2022-09-07T21:15:56.889Z,97846.16
2022-09-07T21:18:23.280Z,97845.31
2022-09-07T21:21:18.480Z,97839.44
2022-09-07T21:23:43.192Z,97844.69
2022-09-07T21:26:09.512Z,97842.72
2022-09-07T21:28:35.886Z,97836.03
2022-09-07T21:31:03.479Z,97839.34
2022-09-07T21:33:30.081Z,97835.38
2022-09-07T21:35:56.693Z,97839.31
2022-09-07T21:38:23.353Z,97836.50
2022-09-07T21:40:49.720Z,97832.16
2022-09-07T21:43:16.040Z,97840.13
2022-09-07T21:45:42.360Z,97841.56
2022-09-07T21:48:08.726Z,97840.13
2022-09-07T21:50:35.071Z,97843.66
2022-09-07T21:53:01.553Z,97848.91
2022-09-07T21:55:27.923Z,97845.69
2022-09-07T21:57:54.285Z,97843.09
2022-09-07T22:00:22.686Z,97850.59
2022-09-07T22:02:50.988Z,97845.06
2022-09-07T22:05:17.373Z,97845.41
2022-09-07T22:07:43.706Z,97841.56
2022-09-07T22:10:10.030Z,97835.91
2022-09-07T22:12:36.375Z,97837.69
2022-09-07T22:15:03.095Z,97825.75
2022-09-07T22:17:29.447Z,97823.72
2022-09-07T22:19:55.770Z,97817.84
2022-09-07T22:22:22.147Z,97810.63
2022-09-07T22:24:48.467Z,97809.09
2022-09-07T22:27:14.874Z,97805.03
2022-09-07T22:29:41.194Z,97812.22
2022-09-07T22:32:07.527Z,97809.50
2022-09-07T22:34:33.877Z,97804.69
2022-09-07T22:37:00.223Z,97807.00
2022-09-07T22:39:26.540Z,97800.56
2022-09-07T22:41:53.301Z,97796.94
2022-09-07T22:44:19.696Z,97791.97
2022-09-07T22:46:46.464Z,97800.06
2022-09-07T22:49:13.469Z,97790.16
2022-09-07T22:51:39.796Z,97789.03
2022-09-07T22:54:06.120Z,97787.09
2022-09-07T22:56:32.851Z,97784.38
2022-09-07T22:58:59.936Z,97793.59
2022-09-07T23:01:26.759Z,97782.72
2022-09-07T23:03:53.371Z,97770.72
2022-09-07T23:06:21.465Z,97765.94
2022-09-07T23:08:48.040Z,97762.34
2022-09-07T23:11:14.699Z,97763.91
2022-09-07T23:13:41.042Z,97758.22
2022-09-07T23:16:07.551Z,97756.97
2022-09-07T23:18:34.074Z,97756.50
2022-09-07T23:21:00.843Z,97766.56
2022-09-07T23:23:27.313Z,97762.91
2022-09-07T23:25:53.656Z,97761.63
2022-09-07T23:28:19.980Z,97751.19
2022-09-07T23:30:46.724Z,97755.19
2022-09-07T23:33:13.270Z,97738.69
2022-09-07T23:35:39.586Z,97747.97
2022-09-07T23:38:05.903Z,97741.50
2022-09-07T23:40:34.185Z,97741.59
2022-09-07T23:43:00.660Z,97728.75
2022-09-07T23:45:27.246Z,97732.09
2022-09-07T23:47:53.643Z,97728.06
2022-09-07T23:50:20.002Z,97734.75
2022-09-07T23:52:46.322Z,97728.56
2022-09-07T23:55:13.225Z,97728.88
2022-09-07T23:57:39.545Z,97717.19
